createdAt,value
2019-04-10T00:04:21.073Z,9.77
2019-04-10T00:09:23.953Z,10.00
2019-04-10T00:14:28.387Z,9.93
2019-04-10T00:19:30.838Z,9.57
2019-04-10T00:24:32.877Z,9.90
2019-04-10T00:29:34.721Z,10.17
2019-04-10T00:34:37.910Z,9.80
2019-04-10T00:39:39.918Z,10.23
2019-04-10T00:44:42.513Z,10.13
2019-04-10T00:49:46.145Z,10.70
2019-04-10T00:54:48.941Z,9.67
2019-04-10T00:59:50.944Z,10.20
2019-04-10T01:04:53.065Z,10.37
2019-04-10T01:09:55.897Z,10.63
2019-04-10T01:14:58.471Z,11.30
2019-04-10T01:20:00.638Z,10.43
2019-04-10T01:25:03.576Z,10.60
2019-04-10T01:30:07.153Z,10.20
2019-04-10T01:35:09.969Z,10.43
2019-04-10T01:40:12.948Z,9.83
2019-04-10T01:45:15.996Z,10.27
2019-04-10T01:50:18.055Z,11.33
2019-04-10T01:55:25.729Z,10.20
2019-04-10T02:00:25.760Z,11.07
2019-04-10T02:05:28.257Z,11.17
2019-04-10T02:10:30.212Z,11.50
2019-04-10T02:15:32.993Z,10.83
2019-04-10T02:20:35.572Z,10.63
2019-04-10T02:25:37.401Z,11.00
2019-04-10T02:30:41.334Z,11.40
2019-04-10T02:35:45.257Z,11.47
2019-04-10T02:40:49.848Z,11.70
2019-04-10T02:45:51.923Z,11.27
2019-04-10T02:50:55.440Z,11.20
2019-04-10T02:55:58.309Z,10.67
2019-04-10T03:01:03.083Z,11.23
2019-04-10T03:06:05.868Z,12.10
2019-04-10T03:11:12.175Z,12.03
2019-04-10T03:16:13.951Z,12.00
2019-04-10T03:21:16.736Z,12.13
2019-04-10T03:26:18.693Z,11.80
2019-04-10T03:31:22.994Z,11.53
2019-04-10T03:36:27.669Z,12.03
2019-04-10T03:41:31.106Z,12.63
2019-04-10T03:46:33.705Z,11.33
2019-04-10T03:51:36.583Z,11.87
2019-04-10T03:56:38.532Z,12.43
2019-04-10T04:01:41.270Z,12.03
2019-04-10T04:06:44.005Z,11.67
2019-04-10T04:11:46.156Z,12.47
2019-04-10T04:16:49.107Z,12.20
2019-04-10T04:21:52.206Z,12.83
2019-04-10T04:26:55.872Z,11.53
2019-04-10T04:31:59.732Z,12.63
2019-04-10T04:37:02.453Z,12.63
2019-04-10T04:42:05.199Z,12.13
2019-04-10T04:47:07.766Z,12.00
2019-04-10T04:52:12.522Z,11.90
2019-04-10T04:57:14.698Z,12.13
2019-04-10T05:02:17.770Z,12.13
2019-04-10T05:07:20.487Z,11.77
2019-04-10T05:12:23.515Z,12.80
2019-04-10T05:17:26.105Z,12.20
2019-04-10T05:22:28.438Z,12.43
2019-04-10T05:27:30.951Z,13.17
2019-04-10T05:32:33.708Z,12.23
2019-04-10T05:37:36.320Z,13.10
2019-04-10T05:42:39.397Z,13.17
2019-04-10T05:47:42.302Z,13.87
2019-04-10T05:52:45.085Z,13.87
2019-04-10T05:57:47.192Z,14.30
2019-04-10T06:02:50.299Z,13.73
2019-04-10T06:07:53.812Z,14.23
2019-04-10T06:12:56.757Z,13.27
2019-04-10T06:17:59.011Z,15.80
2019-04-10T06:23:01.620Z,13.40
2019-04-10T06:28:03.588Z,13.90
2019-04-10T06:33:05.507Z,13.70
2019-04-10T06:38:07.630Z,13.57
2019-04-10T06:43:09.802Z,13.70
2019-04-10T06:48:12.970Z,14.33
2019-04-10T06:53:17.592Z,13.50
2019-04-10T06:58:20.129Z,13.40
2019-04-10T07:03:23.145Z,13.33
2019-04-10T07:08:27.512Z,12.73
2019-04-10T07:13:30.193Z,13.10
2019-04-10T07:18:35.457Z,12.00
2019-04-10T07:23:36.627Z,12.27
2019-04-10T07:28:41.527Z,11.60
2019-04-10T07:33:42.645Z,12.50
2019-04-10T07:38:44.919Z,12.03
2019-04-10T07:43:52.427Z,11.57
2019-04-10T07:48:52.433Z,11.07
2019-04-10T07:53:55.585Z,10.50
2019-04-10T07:58:57.823Z,12.27
2019-04-10T08:03:59.999Z,11.47
2019-04-10T08:09:04.438Z,11.03
2019-04-10T08:14:08.862Z,11.40
2019-04-10T08:19:12.346Z,11.07
2019-04-10T08:24:15.786Z,10.23
2019-04-10T08:29:18.237Z,10.73
2019-04-10T08:34:21.626Z,10.73
2019-04-10T08:39:35.322Z,9.57
2019-04-10T08:44:28.486Z,8.77
2019-04-10T08:49:30.513Z,10.00
2019-04-10T08:54:34.279Z,9.23
2019-04-10T08:59:36.934Z,8.63
2019-04-10T09:04:39.285Z,9.30
2019-04-10T09:09:41.623Z,8.67
2019-04-10T09:14:45.399Z,9.13
2019-04-10T09:19:47.640Z,8.07
2019-04-10T09:24:49.496Z,9.13
2019-04-10T09:29:52.183Z,9.60
2019-04-10T09:34:56.724Z,9.03
2019-04-10T09:40:00.141Z,8.70
2019-04-10T09:45:02.756Z,8.13
2019-04-10T09:50:06.191Z,8.27
2019-04-10T09:55:08.604Z,8.83
2019-04-10T10:00:12.008Z,8.63
2019-04-10T10:05:16.451Z,8.57
2019-04-10T10:10:19.004Z,8.87
2019-04-10T10:15:21.404Z,8.77
2019-04-10T10:20:23.829Z,9.23
2019-04-10T10:25:26.911Z,9.13
2019-04-10T10:30:29.401Z,9.10
2019-04-10T10:35:33.477Z,8.70
2019-04-10T10:40:35.921Z,8.87
2019-04-10T10:45:38.728Z,8.10
2019-04-10T10:50:41.586Z,8.63
2019-04-10T10:55:44.125Z,8.73
2019-04-10T11:00:47.361Z,8.20
2019-04-10T11:05:50.651Z,8.73
2019-04-10T11:10:55.849Z,7.80
2019-04-10T11:15:58.160Z,8.03
2019-04-10T11:21:05.921Z,7.80
2019-04-10T11:26:05.741Z,7.33
2019-04-10T11:31:09.151Z,8.40
2019-04-10T11:36:15.136Z,7.30
2019-04-10T11:41:19.254Z,8.23
2019-04-10T11:46:22.873Z,7.30
2019-04-10T11:56:33.873Z,7.27
2019-04-10T12:01:38.639Z,7.00
2019-04-10T12:06:40.550Z,6.97
2019-04-10T12:11:42.717Z,6.83
2019-04-10T12:16:45.689Z,7.60
2019-04-10T12:21:48.646Z,7.37
2019-04-10T12:26:51.917Z,6.90
2019-04-10T12:31:56.548Z,7.30
2019-04-10T12:36:58.730Z,7.70
2019-04-10T12:42:01.763Z,7.60
2019-04-10T12:47:04.054Z,7.00
2019-04-10T12:52:06.126Z,7.30
2019-04-10T12:57:08.687Z,7.27
2019-04-10T13:02:12.024Z,6.53
2019-04-10T13:07:15.717Z,7.20
2019-04-10T13:12:18.115Z,6.97
2019-04-10T13:17:20.428Z,7.30
2019-04-10T13:22:25.109Z,6.90
2019-04-10T13:27:28.545Z,6.73
2019-04-10T13:32:31.827Z,7.10
2019-04-10T13:37:33.904Z,6.67
2019-04-10T13:42:37.026Z,7.87
2019-04-10T13:47:40.771Z,6.73
2019-04-10T13:52:45.509Z,7.20
2019-04-10T13:57:47.640Z,6.30
2019-04-10T14:02:50.220Z,5.67
2019-04-10T14:07:53.449Z,6.90
2019-04-10T14:12:56.556Z,6.43
2019-04-10T14:18:01.944Z,7.50
2019-04-10T14:23:18.170Z,7.23
2019-04-10T14:28:23.403Z,8.80
2019-04-10T14:33:26.225Z,6.43
2019-04-10T14:38:28.946Z,7.37
2019-04-10T14:43:32.642Z,6.53
2019-04-10T14:48:36.142Z,6.37
2019-04-10T14:53:39.339Z,6.60
2019-04-10T14:58:42.352Z,6.23
2019-04-10T15:03:44.684Z,7.57
2019-04-10T15:08:48.828Z,7.30
2019-04-10T15:13:51.360Z,7.53
2019-04-10T15:18:54.226Z,7.30
2019-04-10T15:23:57.285Z,7.27
2019-04-10T15:29:00.270Z,6.90
2019-04-10T15:34:03.638Z,7.53
2019-04-10T15:39:07.229Z,6.80
2019-04-10T15:44:09.897Z,7.20
2019-04-10T15:49:13.222Z,7.40
2019-04-10T15:54:15.967Z,7.57
2019-04-10T15:59:19.798Z,6.97
2019-04-10T16:04:23.298Z,6.50
2019-04-10T16:09:27.378Z,6.73
2019-04-10T16:14:31.370Z,6.20
2019-04-10T16:19:42.960Z,6.30
2019-04-10T16:24:45.349Z,6.87
2019-04-10T16:29:49.101Z,6.40
2019-04-10T16:34:51.369Z,6.13
2019-04-10T16:40:02.740Z,6.80
2019-04-10T16:44:59.732Z,7.00
2019-04-10T16:50:01.696Z,6.73
2019-04-10T16:55:04.889Z,6.30
2019-04-10T17:00:08.006Z,5.50
2019-04-10T17:05:10.705Z,5.50
2019-04-10T17:10:20.393Z,6.77
2019-04-10T17:15:19.676Z,7.13
2019-04-10T17:20:22.574Z,7.07
2019-04-10T17:25:26.329Z,8.10
2019-04-10T17:30:29.533Z,7.80
2019-04-10T17:35:31.767Z,8.37
2019-04-10T17:40:43.340Z,7.63
2019-04-10T17:45:38.562Z,8.10
2019-04-10T17:50:41.478Z,6.97
2019-04-10T17:55:44.050Z,6.00
2019-04-10T18:00:49.781Z,6.63
2019-04-10T18:05:53.076Z,6.90
2019-04-10T18:10:57.250Z,6.27
2019-04-10T18:16:02.339Z,6.00
2019-04-10T18:21:05.107Z,7.37
2019-04-10T18:26:08.701Z,6.67
2019-04-10T18:31:10.683Z,6.40
2019-04-10T18:36:13.419Z,8.30
2019-04-10T18:41:15.776Z,7.10
2019-04-10T18:46:20.828Z,7.57
2019-04-10T18:51:23.527Z,6.87
2019-04-10T18:56:25.606Z,6.97
2019-04-10T19:01:55.774Z,6.10
2019-04-10T19:06:59.251Z,6.47
2019-04-10T19:12:02.465Z,6.70
2019-04-10T19:17:06.732Z,6.47
2019-04-10T19:22:09.869Z,6.00
2019-04-10T19:27:13.178Z,6.73
2019-04-10T19:32:22.661Z,5.90
2019-04-10T19:37:25.222Z,5.90
2019-04-10T19:42:27.693Z,5.93
2019-04-10T19:47:30.524Z,6.07
2019-04-10T19:52:32.778Z,5.97
2019-04-10T19:57:35.537Z,5.70
2019-04-10T20:02:37.671Z,6.00
2019-04-10T20:07:40.782Z,5.83
2019-04-10T20:12:43.258Z,5.27
2019-04-10T20:17:46.373Z,5.50
2019-04-10T20:22:48.724Z,5.77
2019-04-10T20:27:52.059Z,4.93
2019-04-10T20:32:54.470Z,5.50
2019-04-10T20:37:56.440Z,5.23
2019-04-10T20:42:58.547Z,5.20
2019-04-10T20:48:02.250Z,5.87
2019-04-10T20:53:04.939Z,5.33
2019-04-10T20:58:07.017Z,4.30
2019-04-10T21:03:11.157Z,4.33
2019-04-10T21:08:13.818Z,4.87
2019-04-10T21:13:16.967Z,4.80
2019-04-10T21:18:20.754Z,4.63
2019-04-10T21:23:23.883Z,4.80
2019-04-10T21:28:26.039Z,4.50
2019-04-10T21:33:51.336Z,5.40
2019-04-10T21:38:53.359Z,5.17
2019-04-10T21:43:55.918Z,5.10
2019-04-10T21:48:59.556Z,5.30
2019-04-10T21:54:02.232Z,5.40
2019-04-10T21:59:05.458Z,5.63
2019-04-10T22:04:08.268Z,5.33
2019-04-10T22:09:28.621Z,5.63
2019-04-10T22:14:30.984Z,5.07
2019-04-10T22:19:35.699Z,5.20
2019-04-10T22:24:38.363Z,5.40
2019-04-10T22:29:41.165Z,5.17
2019-04-10T22:34:44.281Z,6.13
2019-04-10T22:39:46.668Z,5.83
2019-04-10T22:44:49.700Z,5.60
2019-04-10T22:49:51.854Z,5.37
2019-04-10T22:54:53.673Z,5.67
2019-04-10T22:59:55.859Z,5.40
2019-04-10T23:04:59.781Z,5.80
2019-04-10T23:10:02.590Z,5.13
2019-04-10T23:15:04.985Z,5.73
2019-04-10T23:20:08.930Z,5.73
2019-04-10T23:25:11.967Z,5.30
2019-04-10T23:30:18.327Z,5.50
2019-04-10T23:35:21.238Z,4.90
2019-04-10T23:40:23.618Z,5.70
2019-04-10T23:45:26.100Z,5.50
2019-04-10T23:50:28.391Z,6.00
2019-04-10T23:55:30.973Z,5.00
